Flight Track Log - Related Links

Times and Time Zones

All times are in EDT time to prevent confusion due to time zone crossing. See the AAL963 flight status page for this flight to view local times or setup timezone preferences in your user account.

Time Position Orientation Groundspeed Altitude Reporting Facility
EDT Latitude Longitude Course Direction KTS MPH feet Rate Location/Type
Sun 09:13:22 PM 32.8390 -97.0590 192° South 173 199 3,200  Level FlightAware ADS-B
Sun 09:13:47 PM 32.8210 -97.0640 193° South 194 223 3,500 1,200 Climbing FlightAware ADS-B
Sun 09:14:22 PM 32.7860 -97.0720 191° South 220 253 4,400 1,733 Climbing FlightAware ADS-B
Sun 09:14:32 PM 32.7760 -97.0740 190° South 221 254 4,800 1,800 Climbing FlightAware ADS-B
Sun 09:15:02 PM 32.7430 -97.0810 190° South 239 275 5,600 1,700 Climbing FlightAware ADS-B
Sun 09:15:32 PM 32.7090 -97.0870 188° South 250 288 6,500 1,680 Climbing FlightAware ADS-B
Sun 09:15:52 PM 32.6890 -97.0890 185° South 257 296 7,000 1,350 Climbing FlightAware ADS-B
Sun 09:16:12 PM 32.6620 -97.0830 169° South 286 329 7,400 1,680 Climbing FlightAware ADS-B
Sun 09:16:42 PM 32.6260 -97.0580 150° Southeast 295 339 8,400 2,100 Climbing FlightAware ADS-B
Sun 09:16:52 PM 32.6140 -97.0500 151° Southeast 295 339 8,800 2,291 Climbing FlightAware ADS-B
Sun 09:17:37 PM 32.5650 -97.0130 148° Southeast 288 331 10,500 1,835 Climbing FlightAware ADS-B
Sun 09:18:17 PM 32.5150 -96.9780 149° Southeast 314 361 11,400 1,271 Climbing FlightAware ADS-B
Sun 09:19:02 PM 32.4540 -96.9360 150° Southeast 344 396 12,300 1,200 Climbing FlightAware ADS-B
Sun 09:19:42 PM 32.3970 -96.8950 149° Southeast 370 426 13,100 1,275 Climbing FlightAware ADS-B
Sun 09:20:22 PM 32.3400 -96.8550 149° Southeast 389 448 14,000 1,694 Climbing FlightAware ADS-B
Sun 09:21:07 PM 32.2670 -96.8090 152° Southeast 390 449 15,500 1,946 Climbing FlightAware ADS-B
Sun 09:21:36 PM 32.2123 -96.7883 162° South 396 456 16,400 1,627 Climbing FlightAware ADS-B
Sun 09:22:06 PM 32.1583 -96.7681 162° South 410 472 17,100 1,574 Climbing FlightAware ADS-B
Sun 09:22:37 PM 32.1019 -96.7469 162° South 417 480 18,000 1,452 Climbing FlightAware ADS-B
Sun 09:22:59 PM 32.0670 -96.7330 161° South 18,300 1,161 Climbing FlightAware ADS-B
Sun 09:23:08 PM 32.0447 -96.7251 163° South 432 497 18,600 2,043 Climbing FlightAware ADS-B
Sun 09:23:46 PM 31.9721 -96.6971 162° South 434 499 19,900 1,760 Climbing FlightAware ADS-B
Sun 09:24:23 PM 31.8992 -96.6697 162° South 438 504 20,800 1,527 Climbing FlightAware ADS-B
Sun 09:24:41 PM 31.8633 -96.6568 163° South 448 516 21,300 1,680 Climbing FlightAware ADS-B
Sun 09:24:50 PM 31.8480 -96.6510 162° South 21,500 1,688 Climbing FlightAware ADS-B
Sun 09:25:13 PM 31.8014 -96.6313 160° South 453 521 22,200 1,588 Climbing FlightAware ADS-B
Sun 09:25:24 PM 31.7790 -96.6220 161° South 432 497 22,400 1,400 Climbing FlightAware ADS-B
Sun 09:25:43 PM 31.7408 -96.6053 160° South 460 529 22,900 1,650 Climbing FlightAware ADS-B
Sun 09:26:04 PM 31.7020 -96.5890 160° South 635 731 23,500 1,688 Climbing FlightAware ADS-B
Sun 09:26:15 PM 31.6772 -96.5782 160° South 463 533 23,800 1,500 Climbing FlightAware ADS-B
Sun 09:26:40 PM 31.6270 -96.5570 160° South 637 733 24,400 1,400 Climbing FlightAware ADS-B
Sun 09:26:45 PM 31.6152 -96.5526 162° South 466 536 24,500 1,400 Climbing FlightAware ADS-B
Sun 09:27:10 PM 31.5660 -96.5330 161° South 451 519 25,100 1,548 Climbing FlightAware ADS-B
Sun 09:27:16 PM 31.5530 -96.5274 160° South 470 541 25,300 1,333 Climbing FlightAware ADS-B
Sun 09:27:46 PM 31.4930 -96.5030 161° South 474 545 25,900 1,017 Climbing FlightAware ADS-B
Sun 09:28:15 PM 31.4290 -96.4800 163° South 472 543 26,300 774 Climbing FlightAware ADS-B
Sun 09:28:17 PM 31.4247 -96.4783 161° South 483 556 26,300 938 Level FlightAware ADS-B
Sun 09:28:47 PM 31.3601 -96.4546 163° South 488 562 26,800 1,029 Climbing FlightAware ADS-B
Sun 09:28:52 PM 31.3520 -96.4510 159° South 489 563 26,900 1,161 Climbing FlightAware ADS-B
Sun 09:29:18 PM 31.2934 -96.4299 163° South 492 566 27,400 1,167 Climbing FlightAware ADS-B
Sun 09:29:28 PM 31.2730 -96.4220 162° South 496 571 27,600 1,161 Climbing FlightAware ADS-B
Sun 09:29:49 PM 31.2255 -96.4045 163° South 495 570 28,000 1,034 Climbing FlightAware ADS-B
Sun 09:29:57 PM 31.2100 -96.3978 160° South 499 574 28,100 667 Climbing FlightAware ADS-B
Sun 09:29:58 PM 31.2080 -96.3970 161° South 498 573 28,100 1,500 Level FlightAware ADS-B
Sun 09:30:05 PM 31.1914 -96.3872 153° Southeast 504 580 28,300 923 Climbing FlightAware ADS-B
Sun 09:30:11 PM 31.1809 -96.3799 149° Southeast 506 582 28,300 545 Level FlightAware ADS-B
Sun 09:30:16 PM 31.1710 -96.3720 146° Southeast 527 606 28,400 1,263 Climbing FlightAware ADS-B
Sun 09:30:30 PM 31.1460 -96.3470 139° Southeast 516 594 28,700 1,000 Climbing FlightAware ADS-B
Sun 09:30:34 PM 31.1400 -96.3400 135° Southeast 496 571 28,700 667 Level FlightAware ADS-B
Sun 09:30:39 PM 31.1311 -96.3272 129° Southeast 522 601 28,800 1,029 Climbing FlightAware ADS-B
Sun 09:31:09 PM 31.0879 -96.2578 126° Southeast 528 608 29,300 885 Climbing FlightAware ADS-B
Sun 09:31:40 PM 31.0449 -96.1873 125° Southeast 532 612 29,700 885 Climbing FlightAware ADS-B
Sun 09:32:10 PM 31.0020 -96.1167 125° Southeast 534 615 30,200 1,029 Climbing FlightAware ADS-B
Sun 09:32:15 PM 30.9940 -96.1030 124° Southeast 542 624 30,300 1,400 Climbing FlightAware ADS-B
Sun 09:32:40 PM 30.9591 -96.0468 126° Southeast 530 610 30,900 1,500 Climbing FlightAware ADS-B
Sun 09:32:51 PM 30.9430 -96.0200 125° Southeast 529 609 31,200 1,400 Climbing FlightAware ADS-B
Sun 09:33:10 PM 30.9158 -95.9766 126° Southeast 528 608 31,600 1,167 Climbing FlightAware ADS-B
Sun 09:33:27 PM 30.8910 -95.9370 126° Southeast 520 598 31,900 1,000 Climbing FlightAware ADS-B
Sun 09:33:40 PM 30.8725 -95.9068 126° Southeast 528 608 32,100 1,034 Climbing FlightAware ADS-B
Sun 09:33:56 PM 30.8486 -95.8706 128° Southeast 527 606 32,400 1,059 Climbing FlightAware ADS-B
Sun 09:33:57 PM 30.8470 -95.8690 139° Southeast 516 594 32,400 600 Level FlightAware ADS-B
Sun 09:34:16 PM 30.8175 -95.8278 130° Southeast 526 605 32,600 774 Climbing FlightAware ADS-B
Sun 09:34:28 PM 30.7990 -95.8050 133° Southeast 529 609 32,800 889 Climbing FlightAware ADS-B
Sun 09:34:43 PM 30.7731 -95.7736 134° Southeast 524 603 33,000 1,029 Climbing FlightAware ADS-B
Sun 09:35:03 PM 30.7370 -95.7330 136° Southeast 533 613 33,400 1,200 Climbing FlightAware ADS-B
Sun 09:35:13 PM 30.7207 -95.7152 137° Southeast 522 601 33,600 968 Climbing FlightAware ADS-B
Sun 09:35:34 PM 30.6850 -95.6760 137° Southeast 510 587 33,900 1,000 Climbing FlightAware ADS-B
Sun 09:35:43 PM 30.6678 -95.6566 136° Southeast 519 597 34,100 1,000 Climbing FlightAware ADS-B
Sun 09:36:04 PM 30.6330 -95.6180 136° Southeast 545 627 34,400 800 Climbing FlightAware ADS-B
Sun 09:36:13 PM 30.6156 -95.5988 136° Southeast 518 596 34,500 686 Climbing FlightAware ADS-B
Sun 09:36:39 PM 30.5710 -95.5490 136° Southeast 498 573 34,800 581 Climbing FlightAware ADS-B
Sun 09:36:44 PM 30.5621 -95.5394 137° Southeast 520 598 34,800 324 Level FlightAware ADS-B
Sun 09:37:16 PM 30.5080 -95.4800 137° Southeast 519 597 35,000 316 Climbing FlightAware ADS-B
Sun 09:37:22 PM 30.4956 -95.4657 135° Southeast 520 598 35,000  Level FlightAware ADS-B
Sun 09:37:52 PM 30.4450 -95.4100 136° Southeast 521 600 35,000  Level FlightAware ADS-B
Sun 09:37:53 PM 30.4427 -95.4071 133° Southeast 518 596 35,000  Level FlightAware ADS-B
Sun 09:38:21 PM 30.3940 -95.3530 136° Southeast 555 639 35,000  Level FlightAware ADS-B
Sun 09:38:23 PM 30.3900 -95.3486 137° Southeast 518 596 35,000  Level FlightAware ADS-B
Sun 09:38:51 PM 30.3420 -95.2960 137° Southeast 530 610 35,000  Level FlightAware ADS-B
Sun 09:38:54 PM 30.3371 -95.2902 134° Southeast 518 596 35,000  Level FlightAware ADS-B
Sun 09:39:24 PM 30.2844 -95.2321 136° Southeast 518 596 35,000  Level FlightAware ADS-B
Sun 09:39:28 PM 30.2790 -95.2260 136° Southeast 531 611 35,000  Level FlightAware ADS-B
Sun 09:39:57 PM 30.2269 -95.1688 137° Southeast 519 597 35,000  Level FlightAware ADS-B
Sun 09:40:02 PM 30.2180 -95.1590 136° Southeast 499 574 35,000  Level FlightAware ADS-B
Sun 09:40:28 PM 30.1728 -95.1094 137° Southeast 519 597 35,000  Level FlightAware ADS-B
Sun 09:40:34 PM 30.1650 -95.1000 134° Southeast 508 585 35,000  Level FlightAware ADS-B
Sun 09:40:59 PM 30.1201 -95.0517 137° Southeast 521 600 35,000  Level FlightAware ADS-B
Sun 09:41:10 PM 30.1010 -95.0310 137° Southeast 545 627 35,000  Level FlightAware ADS-B
Sun 09:41:29 PM 30.0672 -94.9938 136° Southeast 521 600 35,000  Level FlightAware ADS-B
Sun 09:41:45 PM 30.0390 -94.9630 137° Southeast 497 572 35,000  Level FlightAware ADS-B
Sun 09:41:59 PM 30.0138 -94.9354 137° Southeast 522 601 35,000  Level FlightAware ADS-B
Sun 09:42:16 PM 29.9860 -94.9050 137° Southeast 545 627 35,000  Level FlightAware ADS-B
Sun 09:42:30 PM 29.9605 -94.8772 137° Southeast 523 602 35,000  Level FlightAware ADS-B
Sun 09:42:51 PM 29.9240 -94.8370 136° Southeast 526 605 35,000  Level FlightAware ADS-B
Sun 09:43:00 PM 29.9075 -94.8194 137° Southeast 523 602 35,000  Level FlightAware ADS-B
Sun 09:43:22 PM 29.8700 -94.7790 137° Southeast 520 598 35,000  Level FlightAware ADS-B
Sun 09:43:30 PM 29.8543 -94.7617 136° Southeast 523 602 35,000  Level FlightAware ADS-B
Sun 09:43:52 PM 29.8170 -94.7210 137° Southeast 524 603 35,000  Level FlightAware ADS-B
Sun 09:44:00 PM 29.8011 -94.7038 137° Southeast 524 603 35,000  Level FlightAware ADS-B
Sun 09:44:27 PM 29.7540 -94.6530 137° Southeast 536 617 35,000  Level FlightAware ADS-B
Sun 09:44:31 PM 29.7474 -94.6457 136° Southeast 524 603 35,000  Level FlightAware ADS-B
Sun 09:44:58 PM 29.7000 -94.5950 137° Southeast 538 619 35,000  Level FlightAware ADS-B
Sun 09:45:01 PM 29.6939 -94.5877 134° Southeast 525 604 35,000  Level FlightAware ADS-B
Sun 09:45:32 PM 29.6403 -94.5297 137° Southeast 526 605 35,000  Level FlightAware ADS-B
Sun 09:45:34 PM 29.6370 -94.5260 136° Southeast 534 615 35,000  Level FlightAware ADS-B
Sun 09:46:02 PM 29.5869 -94.4719 137° Southeast 526 605 35,000  Level FlightAware ADS-B
Sun 09:46:03 PM 29.5850 -94.4700 139° Southeast 489 563 35,000  Level FlightAware ADS-B
Sun 09:46:32 PM 29.5326 -94.4135 137° Southeast 526 605 35,000  Level FlightAware ADS-B
Sun 09:46:39 PM 29.5200 -94.4000 137° Southeast 513 590 35,000  Level FlightAware ADS-B
Sun 09:47:03 PM 29.4778 -94.3545 137° Southeast 526 605 35,000  Level FlightAware ADS-B
Sun 09:47:15 PM 29.4570 -94.3320 137° Southeast 526 605 35,000  Level FlightAware ADS-B
Sun 09:47:34 PM 29.4240 -94.2968 137° Southeast 525 604 35,000  Level FlightAware ADS-B
Sun 09:47:51 PM 29.3930 -94.2630 136° Southeast 526 605 35,000  Level FlightAware ADS-B
Sun 09:48:04 PM 29.3697 -94.2383 137° Southeast 525 604 35,000  Level FlightAware ADS-B
Sun 09:48:21 PM 29.3420 -94.2090 137° Southeast 566 651 35,000  Level FlightAware ADS-B
Sun 09:48:34 PM 29.3161 -94.1808 136° Southeast 526 605 35,000  Level FlightAware ADS-B
Sun 09:48:51 PM 29.2860 -94.1490 137° Southeast 535 616 35,000  Level FlightAware ADS-B
Sun 09:49:04 PM 29.2630 -94.1237 136° Southeast 526 605 35,000  Level FlightAware ADS-B
Sun 09:49:22 PM 29.2320 -94.0910 137° Southeast 562 647 35,000  Level FlightAware ADS-B
Sun 09:49:36 PM 29.2073 -94.0640 136° Southeast 525 604 35,000  Level FlightAware ADS-B
Sun 09:49:57 PM 29.1730 -94.0270 137° Southeast 431 496 35,000  Level FlightAware ADS-B
Sun 09:50:06 PM 29.1540 -94.0072 138° Southeast 525 604 35,000  Level FlightAware ADS-B
Sun 09:50:41 PM 29.0920 -93.9410 137° Southeast 527 606 35,000  Level FlightAware ADS-B
Sun 09:51:13 PM 29.0606 -93.9022 137° Southeast 524 603 35,000 -65 Level Houston Center
Sun 09:52:14 PM 28.9344 -93.7747 138° Southeast 526 605 34,900  Descending Houston Center
Sun 09:53:15 PM 28.8233 -93.6556 137° Southeast 525 604 35,000 49 Climbing Houston Center
Sun 09:54:16 PM 28.7175 -93.5425 137° Southeast 522 601 35,000  Level Houston Center
Sun 09:55:17 PM 28.6167 -93.4367 137° Southeast 522 601 35,000  Level Houston Center
Sun 09:56:18 PM 28.5053 -93.3178 137° Southeast 522 601 35,000 -49 Level Houston Center
Sun 09:57:19 PM 28.4047 -93.2125 137° Southeast 521 600 34,900  Descending Houston Center
Sun 09:58:20 PM 28.2983 -93.1033 138° Southeast 518 596 35,000 49 Climbing Houston Center
Sun 09:59:21 PM 28.1922 -92.9925 137° Southeast 519 597 35,000  Level Houston Center
Sun 10:00:23 PM 28.0872 -92.8814 137° Southeast 517 595 35,000  Level Houston Center
Sun 10:01:24 PM 27.9583 -92.7486 138° Southeast 520 598 35,000  Level Houston Center
Sun 10:02:25 PM 27.8525 -92.6394 138° Southeast 518 596 35,000  Level Houston Center
Sun 10:03:26 PM 27.7456 -92.5317 138° Southeast 515 593 35,000  Level Houston Center
Sun 10:04:27 PM 27.6392 -92.4228 138° Southeast 516 594 35,000  Level Houston Center
Sun 10:05:28 PM 27.5333 -92.3133 137° Southeast 516 594 35,000  Level Houston Center
Sun 10:06:29 PM 27.4269 -92.2050 138° Southeast 517 595 35,000 -49 Level Houston Center
Sun 10:07:30 PM 27.3197 -92.0969 138° Southeast 517 595 34,900  Descending Houston Center
Sun 10:08:31 PM 27.2142 -91.9906 138° Southeast 514 592 35,000 49 Climbing Houston Center
Sun 10:09:32 PM 27.1022 -91.8889 141° Southeast 516 594 35,000  Level Houston Center
Sun 10:11:00 PM 26.9433 -91.7601 144° Southeast  Level FlightAware Approximate
Sun 10:18:00 PM 26.1824 -91.1512 145° Southeast  Level FlightAware Approximate
Sun 10:19:00 PM 26.0732 -91.0654 145° Southeast  Level FlightAware Approximate
Sun 10:20:00 PM 25.9640 -90.9797 145° Southeast  Level FlightAware Approximate
Sun 10:21:00 PM 25.8547 -90.8941 145° Southeast  Level FlightAware Approximate
Sun 10:22:00 PM 25.7453 -90.8088 145° Southeast  Level FlightAware Approximate
Sun 10:23:00 PM 25.6359 -90.7235 145° Southeast  Level FlightAware Approximate
Sun 10:24:00 PM 25.5265 -90.6385 145° Southeast  Level FlightAware Approximate
Sun 10:25:00 PM 25.4170 -90.5536 145° Southeast  Level FlightAware Approximate
Sun 10:26:00 PM 25.3074 -90.4688 145° Southeast  Level FlightAware Approximate
Sun 10:27:00 PM 25.1978 -90.3842 145° Southeast  Level FlightAware Approximate
Sun 10:28:00 PM 25.0882 -90.2998 145° Southeast  Level FlightAware Approximate
Sun 10:29:00 PM 24.9785 -90.2155 145° Southeast  Level FlightAware Approximate
Sun 10:30:00 PM 24.8687 -90.1314 145° Southeast  Level FlightAware Approximate
Sun 10:31:00 PM 24.7589 -90.0474 145° Southeast  Level FlightAware Approximate
Sun 10:32:00 PM 24.6491 -89.9635 145° Southeast  Level FlightAware Approximate
Sun 10:33:00 PM 24.5392 -89.8798 145° Southeast  Level FlightAware Approximate
Sun 10:34:00 PM 24.4364 -89.7864 138° Southeast  Level FlightAware Approximate
Sun 10:35:00 PM 24.3376 -89.6876 138° Southeast  Level FlightAware Approximate
Sun 10:36:00 PM 24.2403 -89.5870 136° Southeast  Level FlightAware Approximate
Sun 10:37:00 PM 24.1439 -89.4855 136° Southeast  Level FlightAware Approximate
Sun 10:38:00 PM 24.0474 -89.3842 136° Southeast  Level FlightAware Approximate
Sun 10:39:00 PM 23.9508 -89.2830 136° Southeast  Level FlightAware Approximate
Sun 10:40:00 PM 23.8542 -89.1820 136° Southeast  Level FlightAware Approximate
Sun 10:41:00 PM 23.7576 -89.0811 136° Southeast  Level FlightAware Approximate
Sun 10:42:00 PM 23.6608 -88.9804 136° Southeast  Level FlightAware Approximate
Sun 10:43:00 PM 23.5640 -88.8798 136° Southeast  Level FlightAware Approximate
Sun 10:44:00 PM 23.4671 -88.7794 136° Southeast  Level FlightAware Approximate
Sun 10:45:00 PM 23.3702 -88.6791 136° Southeast  Level FlightAware Approximate
Sun 10:46:00 PM 23.2732 -88.5789 137° Southeast  Level FlightAware Approximate
Sun 10:47:00 PM 23.1761 -88.4789 137° Southeast  Level FlightAware Approximate
Sun 10:48:00 PM 23.0790 -88.3791 137° Southeast  Level FlightAware Approximate
Sun 10:49:00 PM 22.9818 -88.2794 137° Southeast  Level FlightAware Approximate
Sun 10:50:00 PM 22.8845 -88.1798 137° Southeast  Level FlightAware Approximate
Sun 10:51:00 PM 22.7872 -88.0804 137° Southeast  Level FlightAware Approximate
Sun 10:52:00 PM 22.6898 -87.9811 137° Southeast  Level FlightAware Approximate
Sun 10:53:00 PM 22.5924 -87.8820 137° Southeast  Level FlightAware Approximate
Sun 10:54:00 PM 22.4949 -87.7830 137° Southeast  Level FlightAware Approximate
Sun 10:55:00 PM 22.3973 -87.6841 137° Southeast  Level FlightAware Approximate
Sun 10:56:00 PM 22.2997 -87.5854 137° Southeast  Level FlightAware Approximate
Sun 10:57:00 PM 22.2020 -87.4868 137° Southeast  Level FlightAware Approximate
Sun 10:58:00 PM 22.1043 -87.3884 137° Southeast  Level FlightAware Approximate
Sun 10:59:00 PM 22.0065 -87.2901 137° Southeast  Level FlightAware Approximate
Sun 11:00:00 PM 21.9086 -87.1919 137° Southeast  Level FlightAware Approximate
Sun 11:01:00 PM 21.8107 -87.0938 137° Southeast  Level FlightAware Approximate
Sun 11:02:00 PM 21.7128 -86.9959 137° Southeast  Level FlightAware Approximate
Sun 11:03:00 PM 21.6148 -86.8980 137° Southeast  Level FlightAware Approximate
Sun 11:04:00 PM 21.5170 -86.8001 137° Southeast  Level FlightAware Approximate
Sun 11:05:00 PM 21.4192 -86.7022 137° Southeast  Level FlightAware Approximate
Sun 11:06:00 PM 21.3213 -86.6045 137° Southeast  Level FlightAware Approximate
Sun 11:07:00 PM 21.2233 -86.5069 137° Southeast  Level FlightAware Approximate
Sun 11:08:00 PM 21.1253 -86.4095 137° Southeast  Level FlightAware Approximate
Sun 11:09:00 PM 21.0272 -86.3121 137° Southeast  Level FlightAware Approximate
Sun 11:10:00 PM 20.9291 -86.2149 137° Southeast  Level FlightAware Approximate
Sun 11:11:00 PM 20.8309 -86.1179 137° Southeast  Level FlightAware Approximate
Sun 11:12:00 PM 20.7327 -86.0209 137° Southeast  Level FlightAware Approximate
Sun 11:13:00 PM 20.6344 -85.9241 137° Southeast  Level FlightAware Approximate
Sun 11:14:00 PM 20.5360 -85.8274 137° Southeast  Level FlightAware Approximate
Sun 11:15:00 PM 20.4376 -85.7309 137° Southeast  Level FlightAware Approximate
Sun 11:16:00 PM 20.3392 -85.6344 137° Southeast  Level FlightAware Approximate
Sun 11:17:00 PM 20.2407 -85.5381 137° Southeast  Level FlightAware Approximate
Sun 11:18:00 PM 20.1421 -85.4419 137° Southeast  Level FlightAware Approximate
Sun 11:19:00 PM 20.0436 -85.3457 137° Southeast  Level FlightAware Approximate
Sun 11:20:00 PM 19.9450 -85.2496 138° Southeast  Level FlightAware Approximate
Sun 11:21:00 PM 19.8463 -85.1537 138° Southeast  Level FlightAware Approximate
Sun 11:22:00 PM 19.7477 -85.0579 138° Southeast  Level FlightAware Approximate
Sun 11:23:00 PM 19.6489 -84.9622 138° Southeast  Level FlightAware Approximate
Sun 11:24:00 PM 19.5501 -84.8666 138° Southeast  Level FlightAware Approximate
Sun 11:25:00 PM 19.4513 -84.7711 138° Southeast  Level FlightAware Approximate
Sun 11:26:00 PM 19.3524 -84.6758 138° Southeast  Level FlightAware Approximate
Sun 11:27:00 PM 19.2535 -84.5806 138° Southeast  Level FlightAware Approximate
Sun 11:28:00 PM 19.1545 -84.4855 138° Southeast  Level FlightAware Approximate
Sun 11:29:00 PM 19.0555 -84.3904 138° Southeast  Level FlightAware Approximate
Sun 11:30:00 PM 18.9564 -84.2956 138° Southeast  Level FlightAware Approximate
Sun 11:31:00 PM 18.8572 -84.2008 138° Southeast  Level FlightAware Approximate
Sun 11:32:00 PM 18.7581 -84.1061 138° Southeast  Level FlightAware Approximate
Sun 11:33:00 PM 18.6585 -84.0119 138° Southeast  Level FlightAware Approximate
Sun 11:34:00 PM 18.5588 -83.9181 138° Southeast  Level FlightAware Approximate
Sun 11:35:00 PM 18.4589 -83.8244 138° Southeast  Level FlightAware Approximate
Sun 11:36:00 PM 18.3591 -83.7307 138° Southeast  Level FlightAware Approximate
Sun 11:37:00 PM 18.2591 -83.6372 138° Southeast  Level FlightAware Approximate
Sun 11:38:00 PM 18.1592 -83.5438 138° Southeast  Level FlightAware Approximate
Sun 11:39:00 PM 18.0592 -83.4505 138° Southeast  Level FlightAware Approximate
Sun 11:40:00 PM 17.9591 -83.3573 138° Southeast  Level FlightAware Approximate
Sun 11:41:00 PM 17.8590 -83.2642 138° Southeast  Level FlightAware Approximate
Sun 11:42:00 PM 17.7589 -83.1712 139° Southeast  Level FlightAware Approximate
Sun 11:43:00 PM 17.6587 -83.0784 139° Southeast  Level FlightAware Approximate
Sun 11:44:00 PM 17.5584 -82.9856 139° Southeast  Level FlightAware Approximate
Sun 11:45:00 PM 17.4584 -82.8932 139° Southeast  Level FlightAware Approximate
Sun 11:46:00 PM 17.3583 -82.8009 139° Southeast  Level FlightAware Approximate
Sun 11:47:00 PM 17.2582 -82.7086 139° Southeast  Level FlightAware Approximate
Sun 11:48:00 PM 17.1580 -82.6165 139° Southeast  Level FlightAware Approximate
Sun 11:49:00 PM 17.0578 -82.5245 139° Southeast  Level FlightAware Approximate
Sun 11:50:00 PM 16.9575 -82.4326 139° Southeast  Level FlightAware Approximate
Sun 11:51:00 PM 16.8573 -82.3408 139° Southeast  Level FlightAware Approximate
Sun 11:52:00 PM 16.7569 -82.2491 139° Southeast  Level FlightAware Approximate
Sun 11:53:00 PM 16.6565 -82.1574 139° Southeast  Level FlightAware Approximate
Sun 11:54:00 PM 16.5560 -82.0660 139° Southeast  Level FlightAware Approximate
Sun 11:55:00 PM 16.4555 -81.9747 139° Southeast  Level FlightAware Approximate
Sun 11:56:00 PM 16.3549 -81.8835 139° Southeast  Level FlightAware Approximate
Sun 11:57:00 PM 16.2543 -81.7923 139° Southeast  Level FlightAware Approximate
Sun 11:58:00 PM 16.1536 -81.7013 139° Southeast  Level FlightAware Approximate
Sun 11:59:00 PM 16.0529 -81.6103 139° Southeast  Level FlightAware Approximate
Mon 12:00:00 AM 15.9522 -81.5195 139° Southeast  Level FlightAware Approximate
Mon 12:01:00 AM 15.8514 -81.4287 139° Southeast  Level FlightAware Approximate
Mon 12:02:00 AM 15.7506 -81.3380 139° Southeast  Level FlightAware Approximate
Mon 12:03:00 AM 15.6498 -81.2474 139° Southeast  Level FlightAware Approximate
Mon 12:04:00 AM 15.5489 -81.1569 139° Southeast  Level FlightAware Approximate
Mon 12:05:00 AM 15.4480 -81.0665 139° Southeast  Level FlightAware Approximate
Mon 12:06:00 AM 15.3470 -80.9762 139° Southeast  Level FlightAware Approximate
Mon 12:07:00 AM 15.2460 -80.8860 139° Southeast  Level FlightAware Approximate
Mon 12:08:00 AM 15.1450 -80.7958 139° Southeast  Level FlightAware Approximate
Mon 12:09:00 AM 15.0439 -80.7058 139° Southeast  Level FlightAware Approximate
Mon 12:10:00 AM 14.9430 -80.6156 139° Southeast  Level FlightAware Approximate
Mon 12:11:00 AM 14.8421 -80.5253 139° Southeast  Level FlightAware Approximate
Mon 12:12:00 AM 14.7413 -80.4351 139° Southeast  Level FlightAware Approximate
Mon 12:13:00 AM 14.6404 -80.3450 139° Southeast  Level FlightAware Approximate
Mon 12:14:00 AM 14.5393 -80.2549 139° Southeast  Level FlightAware Approximate
Mon 12:15:00 AM 14.4381 -80.1648 139° Southeast  Level FlightAware Approximate
Mon 12:16:00 AM 14.3369 -80.0748 139° Southeast  Level FlightAware Approximate
Mon 12:17:00 AM 14.2357 -79.9848 139° Southeast  Level FlightAware Approximate
Mon 12:18:00 AM 14.1345 -79.8950 139° Southeast  Level FlightAware Approximate
Mon 12:19:00 AM 14.0332 -79.8052 139° Southeast  Level FlightAware Approximate
Mon 12:20:00 AM 13.9319 -79.7155 139° Southeast  Level FlightAware Approximate
Mon 12:21:00 AM 13.8305 -79.6259 139° Southeast  Level FlightAware Approximate
Mon 12:22:00 AM 13.7291 -79.5364 139° Southeast  Level FlightAware Approximate
Mon 12:23:00 AM 13.6277 -79.4469 139° Southeast  Level FlightAware Approximate
Mon 12:24:00 AM 13.5263 -79.3576 139° Southeast  Level FlightAware Approximate
Mon 12:25:00 AM 13.4248 -79.2682 139° Southeast  Level FlightAware Approximate
Mon 12:26:00 AM 13.3233 -79.1790 139° Southeast  Level FlightAware Approximate
Mon 12:27:00 AM 13.2217 -79.0899 139° Southeast  Level FlightAware Approximate
Mon 12:28:00 AM 13.1202 -79.0008 139° Southeast  Level FlightAware Approximate
Mon 12:29:00 AM 13.0186 -78.9118 140° Southeast  Level FlightAware Approximate
Mon 12:30:00 AM 12.9169 -78.8229 140° Southeast  Level FlightAware Approximate
Mon 12:31:00 AM 12.8153 -78.7340 140° Southeast  Level FlightAware Approximate
Mon 12:31:02 AM 11.3070 -77.6860 140° Southeast 486 559 35,000  Level FlightAware ADS-B
Mon 12:31:47 AM 11.2380 -77.6310 142° Southeast 486 559 35,000  Level FlightAware ADS-B
Mon 12:32:27 AM 11.1780 -77.5830 142° Southeast 486 559 35,000  Level FlightAware ADS-B
Mon 12:33:12 AM 11.0730 -77.5050 144° Southeast 490 564 35,000  Level FlightAware ADS-B
Mon 12:33:57 AM 10.9890 -77.4400 143° Southeast 490 564 35,000  Level FlightAware ADS-B
Mon 12:34:37 AM 10.9190 -77.3790 139° Southeast 486 559 35,000  Level FlightAware ADS-B
Mon 12:35:22 AM 10.8430 -77.3090 138° Southeast 486 559 35,000  Level FlightAware ADS-B
Mon 12:36:02 AM 10.7760 -77.2460 137° Southeast 488 562 35,000  Level FlightAware ADS-B
Mon 12:36:37 AM 10.7270 -77.1990 137° Southeast 488 562 35,000  Level FlightAware ADS-B
Mon 12:37:27 AM 10.6580 -77.1310 136° Southeast 488 562 35,000  Level FlightAware ADS-B
Mon 12:38:07 AM 10.5640 -77.0480 139° Southeast 486 559 35,000  Level FlightAware ADS-B
Mon 12:38:42 AM 10.5060 -76.9940 138° Southeast 485 558 35,000  Level FlightAware ADS-B
Mon 12:39:32 AM 10.4200 -76.9150 138° Southeast 484 557 35,000  Level FlightAware ADS-B
Mon 12:40:12 AM 10.3550 -76.8550 138° Southeast 486 559 35,000  Level FlightAware ADS-B
Mon 12:40:57 AM 10.2800 -76.7850 137° Southeast 485 558 35,000  Level FlightAware ADS-B
Mon 12:41:37 AM 10.2120 -76.7210 137° Southeast 485 558 35,000  Level FlightAware ADS-B
Mon 12:42:22 AM 10.1350 -76.6500 138° Southeast 484 557 35,000  Level FlightAware ADS-B
Mon 12:43:02 AM 10.0680 -76.5880 138° Southeast 483 556 35,000  Level FlightAware ADS-B
Mon 12:44:32 AM 9.9230 -76.4540 138° Southeast 486 559 35,000  Level FlightAware ADS-B
Mon 12:45:47 AM 9.8020 -76.3410 137° Southeast 486 559 35,000  Level FlightAware ADS-B
Mon 12:47:27 AM 9.6350 -76.1860 138° Southeast 483 556 35,000  Level FlightAware ADS-B
Mon 12:48:07 AM 9.5640 -76.1220 138° Southeast 482 555 35,000  Level FlightAware ADS-B
Mon 12:48:52 AM 9.4980 -76.0570 136° Southeast 482 555 35,000  Level FlightAware ADS-B
Mon 12:49:32 AM 9.4430 -76.0040 136° Southeast 482 555 35,000  Level FlightAware ADS-B
Mon 12:50:12 AM 9.3880 -75.9500 136° Southeast 482 555 35,000  Level FlightAware ADS-B
Mon 12:50:52 AM 9.3340 -75.8970 136° Southeast 482 555 35,000  Level FlightAware ADS-B
Mon 12:51:32 AM 9.2790 -75.8430 136° Southeast 482 555 35,000  Level FlightAware ADS-B
Mon 12:52:22 AM 9.2110 -75.7770 136° Southeast 482 555 35,000  Level FlightAware ADS-B
Mon 12:53:03 AM 9.1570 -75.7230 135° Southeast 482 555 35,000  Level FlightAware ADS-B
Mon 12:53:42 AM 9.1020 -75.6700 136° Southeast 482 555 35,000  Level FlightAware ADS-B
Mon 12:54:22 AM 9.0480 -75.6170 136° Southeast 482 555 35,000  Level FlightAware ADS-B
Mon 12:55:02 AM 8.9930 -75.5630 136° Southeast 482 555 35,000  Level FlightAware ADS-B
Mon 12:55:52 AM 8.9250 -75.4970 136° Southeast 482 555 35,000  Level FlightAware ADS-B
Mon 12:56:32 AM 8.8700 -75.4430 136° Southeast 482 555 35,000  Level FlightAware ADS-B
Mon 12:57:12 AM 8.8160 -75.3900 136° Southeast 482 555 35,000  Level FlightAware ADS-B
Mon 12:57:52 AM 8.7610 -75.3370 136° Southeast 482 555 35,000 14 Level FlightAware ADS-B
Mon 01:00:00 AM 8.5470 -75.1475 139° Southeast  Level FlightAware Approximate
Mon 01:01:00 AM 8.4467 -75.0587 139° Southeast  Level FlightAware Approximate
Mon 01:02:00 AM 8.3463 -74.9700 139° Southeast  Level FlightAware Approximate
Mon 01:03:00 AM 8.2459 -74.8813 139° Southeast  Level FlightAware Approximate
Mon 01:04:00 AM 8.1456 -74.7926 139° Southeast  Level FlightAware Approximate
Mon 01:05:00 AM 8.0451 -74.7040 139° Southeast  Level FlightAware Approximate
Mon 01:06:00 AM 7.9447 -74.6155 139° Southeast  Level FlightAware Approximate
Mon 01:07:00 AM 7.8443 -74.5270 139° Southeast  Level FlightAware Approximate
Mon 01:08:00 AM 7.7438 -74.4385 139° Southeast  Level FlightAware Approximate
Mon 01:09:00 AM 7.6433 -74.3501 139° Southeast  Level FlightAware Approximate
Mon 01:10:00 AM 7.5428 -74.2617 139° Southeast  Level FlightAware Approximate
Mon 01:11:00 AM 7.4423 -74.1734 139° Southeast  Level FlightAware Approximate
Mon 01:12:00 AM 7.3417 -74.0851 139° Southeast  Level FlightAware Approximate
Mon 01:13:00 AM 7.2412 -73.9968 139° Southeast  Level FlightAware Approximate
Mon 01:14:00 AM 7.1406 -73.9086 139° Southeast  Level FlightAware Approximate
Mon 01:15:00 AM 7.0400 -73.8204 139° Southeast  Level FlightAware Approximate
Mon 01:16:00 AM 6.9268 -73.7511 152° Southeast  Level FlightAware Approximate
Mon 01:17:00 AM 6.8095 -73.6873 152° Southeast  Level FlightAware Approximate
Mon 01:18:00 AM 6.6922 -73.6235 152° Southeast  Level FlightAware Approximate
Mon 01:19:00 AM 6.5749 -73.5597 152° Southeast  Level FlightAware Approximate
Mon 01:20:00 AM 6.4576 -73.4960 152° Southeast  Level FlightAware Approximate
Mon 01:21:00 AM 6.3402 -73.4323 152° Southeast  Level FlightAware Approximate
Mon 01:22:00 AM 6.2229 -73.3686 152° Southeast  Level FlightAware Approximate
Mon 01:23:00 AM 6.1055 -73.3050 152° Southeast  Level FlightAware Approximate
Mon 01:24:00 AM 5.9881 -73.2415 152° Southeast  Level FlightAware Approximate
Mon 01:25:00 AM 5.8707 -73.1779 152° Southeast  Level FlightAware Approximate
Mon 01:26:00 AM 5.7533 -73.1144 152° Southeast  Level FlightAware Approximate
Mon 01:27:00 AM 5.6359 -73.0509 152° Southeast  Level FlightAware Approximate
Mon 01:28:00 AM 5.5185 -72.9875 152° Southeast  Level FlightAware Approximate
Mon 01:29:00 AM 5.4010 -72.9240 152° Southeast  Level FlightAware Approximate
Mon 01:30:00 AM 5.2836 -72.8606 152° Southeast  Level FlightAware Approximate
Mon 01:31:00 AM 5.1662 -72.7972 152° Southeast  Level FlightAware Approximate
Mon 01:32:00 AM 5.0487 -72.7339 152° Southeast  Level FlightAware Approximate
Mon 01:33:00 AM 4.9313 -72.6705 152° Southeast  Level FlightAware Approximate
Mon 01:34:00 AM 4.8138 -72.6072 152° Southeast  Level FlightAware Approximate
Mon 01:35:00 AM 4.6964 -72.5439 152° Southeast  Level FlightAware Approximate
Mon 01:36:00 AM 4.5789 -72.4807 152° Southeast  Level FlightAware Approximate
Mon 01:37:00 AM 4.4614 -72.4174 152° Southeast  Level FlightAware Approximate
Mon 01:38:00 AM 4.3439 -72.3542 152° Southeast  Level FlightAware Approximate
Mon 01:39:00 AM 4.2265 -72.2910 152° Southeast  Level FlightAware Approximate
Mon 01:40:00 AM 4.1090 -72.2278 152° Southeast  Level FlightAware Approximate
Mon 01:41:00 AM 3.9915 -72.1646 152° Southeast  Level FlightAware Approximate
Mon 01:42:00 AM 3.8783 -72.0945 145° Southeast  Level FlightAware Approximate
Mon 01:43:00 AM 3.7693 -72.0175 145° Southeast  Level FlightAware Approximate
Mon 01:44:00 AM 3.6602 -71.9406 145° Southeast  Level FlightAware Approximate
Mon 01:45:00 AM 3.5512 -71.8637 145° Southeast  Level FlightAware Approximate
Mon 01:46:00 AM 3.4422 -71.7869 145° Southeast  Level FlightAware Approximate
Mon 01:47:00 AM 3.3331 -71.7100 145° Southeast  Level FlightAware Approximate
Mon 01:48:00 AM 3.2243 -71.6333 145° Southeast  Level FlightAware Approximate
Mon 01:49:00 AM 3.1154 -71.5566 145° Southeast  Level FlightAware Approximate
Mon 01:50:00 AM 3.0066 -71.4800 145° Southeast  Level FlightAware Approximate
Mon 01:51:00 AM 2.8977 -71.4033 145° Southeast  Level FlightAware Approximate
Mon 01:52:00 AM 2.7888 -71.3267 145° Southeast  Level FlightAware Approximate
Mon 01:53:00 AM 2.6799 -71.2501 145° Southeast  Level FlightAware Approximate
Mon 01:54:00 AM 2.5711 -71.1734 145° Southeast  Level FlightAware Approximate
Mon 01:55:00 AM 2.4622 -71.0968 145° Southeast  Level FlightAware Approximate
Mon 01:56:00 AM 2.3533 -71.0203 145° Southeast  Level FlightAware Approximate
Mon 01:57:00 AM 2.2444 -70.9437 145° Southeast  Level FlightAware Approximate
Mon 01:58:00 AM 2.1355 -70.8671 145° Southeast  Level FlightAware Approximate
Mon 01:59:00 AM 2.0266 -70.7906 145° Southeast  Level FlightAware Approximate
Mon 02:00:00 AM 1.9177 -70.7141 145° Southeast  Level FlightAware Approximate
Mon 02:01:00 AM 1.8088 -70.6375 145° Southeast  Level FlightAware Approximate
Mon 02:02:00 AM 1.6999 -70.5610 145° Southeast  Level FlightAware Approximate
Mon 02:03:00 AM 1.5909 -70.4845 145° Southeast  Level FlightAware Approximate
Mon 02:04:00 AM 1.4820 -70.4080 145° Southeast  Level FlightAware Approximate
Mon 02:05:00 AM 1.3731 -70.3315 145° Southeast  Level FlightAware Approximate
Mon 02:06:00 AM 1.2642 -70.2550 145° Southeast  Level FlightAware Approximate
Mon 02:07:00 AM 1.1621 -70.1699 138° Southeast  Level FlightAware Approximate
Mon 02:08:00 AM 1.0626 -70.0814 138° Southeast  Level FlightAware Approximate
Mon 02:09:00 AM 0.9632 -69.9929 138° Southeast  Level FlightAware Approximate
Mon 02:10:00 AM 0.8640 -69.9045 138° Southeast  Level FlightAware Approximate
Mon 02:11:00 AM 0.7647 -69.8162 138° Southeast  Level FlightAware Approximate
Mon 02:12:00 AM 0.6655 -69.7279 138° Southeast  Level FlightAware Approximate
Mon 02:13:00 AM 0.5662 -69.6396 138° Southeast  Level FlightAware Approximate
Mon 02:14:00 AM 0.4670 -69.5513 138° Southeast  Level FlightAware Approximate
Mon 02:15:00 AM 0.3677 -69.4630 138° Southeast  Level FlightAware Approximate
Mon 02:16:00 AM 0.2685 -69.3747 138° Southeast  Level FlightAware Approximate
Mon 02:17:00 AM 0.1692 -69.2863 138° Southeast  Level FlightAware Approximate
Mon 02:18:00 AM 0.0700 -69.1980 138° Southeast  Level FlightAware Approximate
Mon 02:19:00 AM -0.0293 -69.1097 138° Southeast  Level FlightAware Approximate
Mon 02:20:00 AM -0.1285 -69.0214 138° Southeast  Level FlightAware Approximate
Mon 02:21:00 AM -0.2278 -68.9331 138° Southeast  Level FlightAware Approximate
Mon 02:22:00 AM -0.3270 -68.8448 138° Southeast  Level FlightAware Approximate
Mon 02:23:00 AM -0.4263 -68.7565 138° Southeast  Level FlightAware Approximate
Mon 02:24:00 AM -0.5255 -68.6682 138° Southeast  Level FlightAware Approximate
Mon 02:25:00 AM -0.6248 -68.5799 138° Southeast  Level FlightAware Approximate
Mon 02:26:00 AM -0.7240 -68.4915 138° Southeast  Level FlightAware Approximate
Mon 02:27:00 AM -0.8233 -68.4032 138° Southeast  Level FlightAware Approximate
Mon 02:28:00 AM -0.9225 -68.3149 138° Southeast  Level FlightAware Approximate
Mon 02:29:00 AM -1.0218 -68.2266 138° Southeast  Level FlightAware Approximate
Mon 02:30:00 AM -1.1210 -68.1382 138° Southeast  Level FlightAware Approximate
Mon 02:31:00 AM -1.2203 -68.0499 138° Southeast  Level FlightAware Approximate
Mon 02:32:00 AM -1.3195 -67.9615 138° Southeast  Level FlightAware Approximate
Mon 02:33:00 AM -1.4187 -67.8732 138° Southeast  Level FlightAware Approximate
Mon 02:34:00 AM -1.5180 -67.7848 138° Southeast  Level FlightAware Approximate
Mon 02:35:00 AM -1.6172 -67.6964 138° Southeast  Level FlightAware Approximate
Mon 02:36:00 AM -1.7164 -67.6081 138° Southeast  Level FlightAware Approximate
Mon 02:37:00 AM -1.8156 -67.5197 138° Southeast  Level FlightAware Approximate
Mon 02:38:00 AM -1.9148 -67.4313 138° Southeast  Level FlightAware Approximate
Mon 02:39:00 AM -2.0140 -67.3429 138° Southeast  Level FlightAware Approximate
Mon 02:40:00 AM -2.1132 -67.2544 138° Southeast  Level FlightAware Approximate
Mon 02:41:00 AM -2.2124 -67.1660 138° Southeast  Level FlightAware Approximate
Mon 02:42:00 AM -2.3116 -67.0776 138° Southeast  Level FlightAware Approximate
Mon 02:43:00 AM -2.4108 -66.9891 138° Southeast  Level FlightAware Approximate
Mon 02:44:00 AM -2.5100 -66.9007 138° Southeast  Level FlightAware Approximate
Mon 02:45:00 AM -2.6092 -66.8122 138° Southeast  Level FlightAware Approximate
Mon 02:46:00 AM -2.7083 -66.7237 138° Southeast  Level FlightAware Approximate
Mon 02:47:00 AM -2.8075 -66.6352 138° Southeast  Level FlightAware Approximate
Mon 02:48:00 AM -2.9067 -66.5466 138° Southeast  Level FlightAware Approximate
Mon 02:49:00 AM -3.0058 -66.4581 138° Southeast  Level FlightAware Approximate
Mon 02:50:00 AM -3.1050 -66.3695 138° Southeast  Level FlightAware Approximate
Mon 02:51:00 AM -3.2041 -66.2810 138° Southeast  Level FlightAware Approximate
Mon 02:52:00 AM -3.3032 -66.1924 138° Southeast  Level FlightAware Approximate
Mon 02:53:00 AM -3.4023 -66.1038 138° Southeast  Level FlightAware Approximate
Mon 02:54:00 AM -3.5015 -66.0151 138° Southeast  Level FlightAware Approximate
Mon 02:55:00 AM -3.6006 -65.9265 138° Southeast  Level FlightAware Approximate
Mon 02:56:00 AM -3.6997 -65.8378 138° Southeast  Level FlightAware Approximate
Mon 02:57:00 AM -3.7987 -65.7491 138° Southeast  Level FlightAware Approximate
Mon 02:58:00 AM -3.8978 -65.6604 138° Southeast  Level FlightAware Approximate
Mon 02:59:00 AM -3.9969 -65.5717 138° Southeast  Level FlightAware Approximate
Mon 03:00:00 AM -4.0960 -65.4830 138° Southeast  Level FlightAware Approximate
Mon 03:01:00 AM -4.1950 -65.3942 138° Southeast  Level FlightAware Approximate
Mon 03:02:00 AM -4.2940 -65.3054 138° Southeast  Level FlightAware Approximate
Mon 03:03:00 AM -4.3931 -65.2166 138° Southeast  Level FlightAware Approximate
Mon 03:04:00 AM -4.4921 -65.1277 138° Southeast  Level FlightAware Approximate
Mon 03:05:00 AM -4.5911 -65.0389 138° Southeast  Level FlightAware Approximate
Mon 03:06:00 AM -4.6901 -64.9500 138° Southeast  Level FlightAware Approximate
Mon 03:07:00 AM -4.7891 -64.8611 138° Southeast  Level FlightAware Approximate
Mon 03:08:00 AM -4.8881 -64.7721 138° Southeast  Level FlightAware Approximate
Mon 03:09:00 AM -4.9870 -64.6832 138° Southeast  Level FlightAware Approximate
Mon 03:10:00 AM -5.0860 -64.5942 138° Southeast  Level FlightAware Approximate
Mon 03:11:00 AM -5.1849 -64.5052 138° Southeast  Level FlightAware Approximate
Mon 03:12:00 AM -5.2842 -64.4158 138° Southeast  Level FlightAware Approximate
Mon 03:13:00 AM -5.3835 -64.3264 138° Southeast  Level FlightAware Approximate
Mon 03:14:00 AM -5.4827 -64.2370 138° Southeast  Level FlightAware Approximate
Mon 03:15:00 AM -5.5819 -64.1476 138° Southeast  Level FlightAware Approximate
Mon 03:16:00 AM -5.6812 -64.0581 138° Southeast  Level FlightAware Approximate
Mon 03:17:00 AM -5.7804 -63.9686 138° Southeast  Level FlightAware Approximate
Mon 03:18:00 AM -5.8796 -63.8790 138° Southeast  Level FlightAware Approximate
Mon 03:19:00 AM -5.9788 -63.7894 138° Southeast  Level FlightAware Approximate
Mon 03:20:00 AM -6.0779 -63.6998 138° Southeast  Level FlightAware Approximate
Mon 03:21:00 AM -6.1771 -63.6102 138° Southeast  Level FlightAware Approximate
Mon 03:22:00 AM -6.2762 -63.5205 138° Southeast  Level FlightAware Approximate
Mon 03:23:00 AM -6.3753 -63.4308 138° Southeast  Level FlightAware Approximate
Mon 03:24:00 AM -6.4745 -63.3410 138° Southeast  Level FlightAware Approximate
Mon 03:25:00 AM -6.5735 -63.2513 138° Southeast  Level FlightAware Approximate
Mon 03:26:00 AM -6.6726 -63.1614 138° Southeast  Level FlightAware Approximate
Mon 03:27:00 AM -6.7717 -63.0716 138° Southeast  Level FlightAware Approximate
Mon 03:28:00 AM -6.8707 -62.9817 138° Southeast  Level FlightAware Approximate
Mon 03:29:00 AM -6.9697 -62.8918 138° Southeast  Level FlightAware Approximate
Mon 03:30:00 AM -7.0688 -62.8018 138° Southeast  Level FlightAware Approximate
Mon 03:31:00 AM -7.1677 -62.7118 138° Southeast  Level FlightAware Approximate
Mon 03:32:00 AM -7.2667 -62.6218 138° Southeast  Level FlightAware Approximate
Mon 03:33:00 AM -7.3657 -62.5317 138° Southeast  Level FlightAware Approximate
Mon 03:34:00 AM -7.4646 -62.4416 138° Southeast  Level FlightAware Approximate
Mon 03:35:00 AM -7.5635 -62.3514 138° Southeast  Level FlightAware Approximate
Mon 03:36:00 AM -7.6624 -62.2612 138° Southeast  Level FlightAware Approximate
Mon 03:37:00 AM -7.7613 -62.1710 138° Southeast  Level FlightAware Approximate
Mon 03:38:00 AM -7.8602 -62.0807 138° Southeast  Level FlightAware Approximate
Mon 03:39:00 AM -7.9591 -61.9903 138° Southeast  Level FlightAware Approximate
Mon 03:40:00 AM -8.0579 -61.9000 138° Southeast  Level FlightAware Approximate
Mon 03:41:00 AM -8.1567 -61.8095 138° Southeast  Level FlightAware Approximate
Mon 03:42:00 AM -8.2555 -61.7191 138° Southeast  Level FlightAware Approximate
Mon 03:43:00 AM -8.3542 -61.6286 138° Southeast  Level FlightAware Approximate
Mon 03:44:00 AM -8.4528 -61.5382 138° Southeast  Level FlightAware Approximate
Mon 03:45:00 AM -8.5514 -61.4477 138° Southeast  Level FlightAware Approximate
Mon 03:46:00 AM -8.6499 -61.3573 138° Southeast  Level FlightAware Approximate
Mon 03:47:00 AM -8.7484 -61.2667 138° Southeast  Level FlightAware Approximate
Mon 03:48:00 AM -8.8469 -61.1761 138° Southeast  Level FlightAware Approximate
Mon 03:49:00 AM -8.9453 -61.0855 138° Southeast  Level FlightAware Approximate
Mon 03:50:00 AM -9.0438 -60.9948 138° Southeast  Level FlightAware Approximate
Mon 03:51:00 AM -9.1422 -60.9041 138° Southeast  Level FlightAware Approximate
Mon 03:52:00 AM -9.2406 -60.8133 138° Southeast  Level FlightAware Approximate
Mon 03:53:00 AM -9.3390 -60.7225 138° Southeast  Level FlightAware Approximate
Mon 03:54:00 AM -9.4373 -60.6316 138° Southeast  Level FlightAware Approximate
Mon 03:55:00 AM -9.5357 -60.5407 138° Southeast  Level FlightAware Approximate
Mon 03:56:00 AM -9.6340 -60.4497 138° Southeast  Level FlightAware Approximate
Mon 03:57:00 AM -9.7322 -60.3587 138° Southeast  Level FlightAware Approximate
Mon 03:58:00 AM -9.8305 -60.2676 138° Southeast  Level FlightAware Approximate
Mon 03:59:00 AM -9.9287 -60.1764 138° Southeast  Level FlightAware Approximate
Mon 04:00:00 AM -10.0269 -60.0852 138° Southeast  Level FlightAware Approximate
Mon 04:01:00 AM -10.1251 -59.9939 138° Southeast  Level FlightAware Approximate
Mon 04:02:00 AM -10.2233 -59.9026 138° Southeast  Level FlightAware Approximate
Mon 04:03:00 AM -10.3214 -59.8113 138° Southeast  Level FlightAware Approximate
Mon 04:04:00 AM -10.4195 -59.7198 137° Southeast  Level FlightAware Approximate
Mon 04:05:00 AM -10.5176 -59.6284 137° Southeast  Level FlightAware Approximate
Mon 04:06:00 AM -10.6157 -59.5368 137° Southeast  Level FlightAware Approximate
Mon 04:07:00 AM -10.7139 -59.4451 137° Southeast  Level FlightAware Approximate
Mon 04:08:00 AM -10.8120 -59.3532 137° Southeast  Level FlightAware Approximate
Mon 04:09:00 AM -10.9102 -59.2614 137° Southeast  Level FlightAware Approximate
Mon 04:10:00 AM -11.0083 -59.1694 137° Southeast  Level FlightAware Approximate
Mon 04:11:00 AM -11.1064 -59.0774 137° Southeast  Level FlightAware Approximate
Mon 04:12:00 AM -11.2044 -58.9853 137° Southeast  Level FlightAware Approximate
Mon 04:13:00 AM -11.3025 -58.8932 137° Southeast  Level FlightAware Approximate
Mon 04:14:00 AM -11.4005 -58.8010 137° Southeast  Level FlightAware Approximate
Mon 04:15:00 AM -11.4985 -58.7088 137° Southeast  Level FlightAware Approximate
Mon 04:16:00 AM -11.5964 -58.6164 137° Southeast  Level FlightAware Approximate
Mon 04:17:00 AM -11.6943 -58.5241 137° Southeast  Level FlightAware Approximate
Mon 04:18:00 AM -11.7922 -58.4316 137° Southeast  Level FlightAware Approximate
Mon 04:19:00 AM -11.8901 -58.3391 137° Southeast  Level FlightAware Approximate
Mon 04:20:00 AM -11.9879 -58.2465 137° Southeast  Level FlightAware Approximate
Mon 04:21:00 AM -12.0857 -58.1539 137° Southeast  Level FlightAware Approximate
Mon 04:22:00 AM -12.1835 -58.0611 137° Southeast  Level FlightAware Approximate
Mon 04:23:00 AM -12.2812 -57.9683 137° Southeast  Level FlightAware Approximate
Mon 04:24:00 AM -12.3789 -57.8755 137° Southeast  Level FlightAware Approximate
Mon 04:25:00 AM -12.4766 -57.7826 137° Southeast  Level FlightAware Approximate
Mon 04:26:00 AM -12.5743 -57.6895 137° Southeast  Level FlightAware Approximate
Mon 04:27:00 AM -12.6719 -57.5965 137° Southeast  Level FlightAware Approximate
Mon 04:28:00 AM -12.7695 -57.5033 137° Southeast  Level FlightAware Approximate
Mon 04:29:00 AM -12.8670 -57.4101 137° Southeast  Level FlightAware Approximate
Mon 04:30:00 AM -12.9645 -57.3168 137° Southeast  Level FlightAware Approximate
Mon 04:31:00 AM -13.0620 -57.2235 137° Southeast  Level FlightAware Approximate
Mon 04:32:00 AM -13.1594 -57.1301 137° Southeast  Level FlightAware Approximate
Mon 04:33:00 AM -13.2567 -57.0367 137° Southeast  Level FlightAware Approximate
Mon 04:34:00 AM -13.3539 -56.9433 137° Southeast  Level FlightAware Approximate
Mon 04:35:00 AM -13.4511 -56.8498 137° Southeast  Level FlightAware Approximate
Mon 04:36:00 AM -13.5482 -56.7563 137° Southeast  Level FlightAware Approximate
Mon 04:37:00 AM -13.6453 -56.6626 137° Southeast  Level FlightAware Approximate
Mon 04:38:00 AM -13.7424 -56.5689 137° Southeast  Level FlightAware Approximate
Mon 04:39:00 AM -13.8394 -56.4751 137° Southeast  Level FlightAware Approximate
Mon 04:40:00 AM -13.9364 -56.3812 137° Southeast  Level FlightAware Approximate
Mon 04:41:00 AM -14.0334 -56.2873 137° Southeast  Level FlightAware Approximate
Mon 04:42:00 AM -14.1303 -56.1933 137° Southeast  Level FlightAware Approximate
Mon 04:43:00 AM -14.2272 -56.0992 137° Southeast  Level FlightAware Approximate
Mon 04:44:00 AM -14.3240 -56.0050 137° Southeast  Level FlightAware Approximate
Mon 04:45:00 AM -14.4208 -55.9107 137° Southeast  Level FlightAware Approximate
Mon 04:46:00 AM -14.5176 -55.8163 137° Southeast  Level FlightAware Approximate
Mon 04:47:00 AM -14.6144 -55.7219 137° Southeast  Level FlightAware Approximate
Mon 04:48:00 AM -14.7111 -55.6274 137° Southeast  Level FlightAware Approximate
Mon 04:49:00 AM -14.8077 -55.5328 137° Southeast  Level FlightAware Approximate
Mon 04:50:00 AM -14.9043 -55.4381 137° Southeast  Level FlightAware Approximate
Mon 04:51:00 AM -15.0009 -55.3433 137° Southeast  Level FlightAware Approximate
Mon 04:52:00 AM -15.0975 -55.2485 137° Southeast  Level FlightAware Approximate
Mon 04:53:00 AM -15.1940 -55.1535 136° Southeast  Level FlightAware Approximate
Mon 04:54:00 AM -15.2904 -55.0585 136° Southeast  Level FlightAware Approximate
Mon 04:55:00 AM -15.3869 -54.9634 136° Southeast  Level FlightAware Approximate
Mon 04:56:00 AM -15.4833 -54.8682 136° Southeast  Level FlightAware Approximate
Mon 04:57:00 AM -15.5796 -54.7729 136° Southeast  Level FlightAware Approximate
Mon 04:58:00 AM -15.6759 -54.6775 136° Southeast  Level FlightAware Approximate
Mon 04:59:00 AM -15.7722 -54.5820 136° Southeast  Level FlightAware Approximate
Mon 05:00:00 AM -15.8684 -54.4864 136° Southeast  Level FlightAware Approximate
Mon 05:01:00 AM -15.9646 -54.3908 136° Southeast  Level FlightAware Approximate
Mon 05:02:00 AM -16.0607 -54.2950 136° Southeast  Level FlightAware Approximate
Mon 05:03:00 AM -16.1568 -54.1992 136° Southeast  Level FlightAware Approximate
Mon 05:04:00 AM -16.2528 -54.1032 136° Southeast  Level FlightAware Approximate
Mon 05:05:00 AM -16.3489 -54.0072 136° Southeast  Level FlightAware Approximate
Mon 05:06:00 AM -16.4448 -53.9111 136° Southeast  Level FlightAware Approximate
Mon 05:07:00 AM -16.5407 -53.8149 136° Southeast  Level FlightAware Approximate
Mon 05:08:00 AM -16.6366 -53.7186 136° Southeast  Level FlightAware Approximate
Mon 05:09:00 AM -16.7324 -53.6222 136° Southeast  Level FlightAware Approximate
Mon 05:10:00 AM -16.8282 -53.5257 136° Southeast  Level FlightAware Approximate
Mon 05:11:00 AM -16.9240 -53.4291 136° Southeast  Level FlightAware Approximate
Mon 05:12:00 AM -17.0197 -53.3324 136° Southeast  Level FlightAware Approximate
Mon 05:13:00 AM -17.1153 -53.2355 136° Southeast  Level FlightAware Approximate
Mon 05:14:00 AM -17.2109 -53.1386 136° Southeast  Level FlightAware Approximate
Mon 05:15:00 AM -17.3065 -53.0416 136° Southeast  Level FlightAware Approximate
Mon 05:16:00 AM -17.4020 -52.9445 136° Southeast  Level FlightAware Approximate
Mon 05:17:00 AM -17.4974 -52.8474 136° Southeast  Level FlightAware Approximate
Mon 05:18:00 AM -17.5929 -52.7500 136° Southeast  Level FlightAware Approximate
Mon 05:19:00 AM -17.6882 -52.6526 136° Southeast  Level FlightAware Approximate
Mon 05:20:00 AM -17.7836 -52.5551 136° Southeast  Level FlightAware Approximate
Mon 05:21:00 AM -17.8788 -52.4575 136° Southeast  Level FlightAware Approximate
Mon 05:22:00 AM -17.9741 -52.3598 136° Southeast  Level FlightAware Approximate
Mon 05:23:00 AM -18.0692 -52.2620 136° Southeast  Level FlightAware Approximate
Mon 05:24:00 AM -18.1644 -52.1640 136° Southeast  Level FlightAware Approximate
Mon 05:25:00 AM -18.2594 -52.0660 136° Southeast  Level FlightAware Approximate
Mon 05:26:00 AM -18.3545 -51.9678 136° Southeast  Level FlightAware Approximate
Mon 05:27:00 AM -18.4494 -51.8696 136° Southeast  Level FlightAware Approximate
Mon 05:28:00 AM -18.5444 -51.7712 136° Southeast  Level FlightAware Approximate
Mon 05:29:00 AM -18.6392 -51.6727 135° Southeast  Level FlightAware Approximate
Mon 05:30:00 AM -18.7341 -51.5742 135° Southeast  Level FlightAware Approximate
Mon 05:31:00 AM -18.8288 -51.4755 135° Southeast  Level FlightAware Approximate
Mon 05:32:00 AM -18.9236 -51.3767 135° Southeast  Level FlightAware Approximate
Mon 05:33:00 AM -19.0182 -51.2778 135° Southeast  Level FlightAware Approximate
Mon 05:33:42 AM -18.9990 -50.6720 135° Southeast 507 583 39,000  Level FlightAware ADS-B
Mon 05:34:00 AM -19.1128 -51.1787 135° Southeast  Level FlightAware Approximate
Mon 05:34:37 AM -19.0850 -50.5780 134° Southeast 507 583 39,000  Level FlightAware ADS-B
Mon 05:35:17 AM -19.1590 -50.4970 134° Southeast 509 586 39,000  Level FlightAware ADS-B
Mon 05:36:02 AM -19.2310 -50.4190 134° Southeast 511 588 39,000  Level FlightAware ADS-B
Mon 05:36:42 AM -19.2960 -50.3470 134° Southeast 511 588 39,000  Level FlightAware ADS-B
Mon 05:37:27 AM -19.3720 -50.2630 134° Southeast 512 589 39,000  Level FlightAware ADS-B
Mon 05:38:07 AM -19.4370 -50.1910 134° Southeast 513 590 39,000  Level FlightAware ADS-B
Mon 05:38:47 AM -19.5010 -50.1210 134° Southeast 514 592 39,000  Level FlightAware ADS-B
Mon 05:39:32 AM -19.5770 -50.0380 134° Southeast 514 592 39,000  Level FlightAware ADS-B
Mon 05:40:17 AM -19.6530 -49.9540 134° Southeast 514 592 39,000  Level FlightAware ADS-B
Mon 05:40:57 AM -19.7200 -49.8820 135° Southeast 514 592 39,000  Level FlightAware ADS-B
Mon 05:41:42 AM -19.7920 -49.8030 134° Southeast 514 592 39,000  Level FlightAware ADS-B
Mon 05:42:22 AM -19.8570 -49.7310 134° Southeast 514 592 39,000  Level FlightAware ADS-B
Mon 05:43:07 AM -19.9350 -49.6460 134° Southeast 514 592 39,000  Level FlightAware ADS-B
Mon 05:43:47 AM -20.0000 -49.5750 134° Southeast 513 590 39,000  Level FlightAware ADS-B
Mon 05:44:27 AM -20.0640 -49.5040 134° Southeast 513 590 39,000  Level FlightAware ADS-B
Mon 05:45:12 AM -20.1390 -49.4220 134° Southeast 513 590 39,000  Level FlightAware ADS-B
Mon 05:45:52 AM -20.2040 -49.3500 134° Southeast 512 589 39,000  Level FlightAware ADS-B
Mon 05:46:37 AM -20.2780 -49.2680 134° Southeast 512 589 39,000  Level FlightAware ADS-B
Mon 05:47:17 AM -20.3450 -49.1940 134° Southeast 511 588 39,000  Level FlightAware ADS-B
Mon 05:47:57 AM -20.4100 -49.1230 134° Southeast 512 589 39,000  Level FlightAware ADS-B
Mon 05:48:37 AM -20.4780 -49.0480 134° Southeast 512 589 39,000  Level FlightAware ADS-B
Mon 05:49:22 AM -20.5510 -48.9670 134° Southeast 514 592 39,000  Level FlightAware ADS-B
Mon 05:50:07 AM -20.6260 -48.8830 134° Southeast 514 592 39,000  Level FlightAware ADS-B
Mon 05:50:47 AM -20.6910 -48.8110 134° Southeast 514 592 39,000  Level FlightAware ADS-B
Mon 05:51:27 AM -20.7580 -48.7360 134° Southeast 514 592 39,000  Level FlightAware ADS-B
Mon 05:52:07 AM -20.8230 -48.6630 134° Southeast 514 592 39,000  Level FlightAware ADS-B
Mon 05:52:52 AM -20.8960 -48.5810 134° Southeast 514 592 39,000  Level FlightAware ADS-B
Mon 05:53:32 AM -20.9610 -48.5080 134° Southeast 513 590 39,000  Level FlightAware ADS-B
Mon 05:54:17 AM -21.0370 -48.4220 133° Southeast 512 589 39,000  Level FlightAware ADS-B
Mon 05:54:57 AM -21.1000 -48.3510 134° Southeast 511 588 39,000  Level FlightAware ADS-B
Mon 05:55:37 AM -21.1650 -48.2780 134° Southeast 510 587 39,000  Level FlightAware ADS-B
Mon 05:56:22 AM -21.2380 -48.1950 133° Southeast 510 587 39,000  Level FlightAware ADS-B
Mon 05:57:07 AM -21.3110 -48.1130 134° Southeast 510 587 39,000  Level FlightAware ADS-B
Mon 05:57:47 AM -21.3750 -48.0400 133° Southeast 509 586 39,000  Level FlightAware ADS-B
Mon 05:58:27 AM -21.4400 -47.9660 133° Southeast 509 586 39,000 -212 Level FlightAware ADS-B
Mon 05:59:12 AM -21.5140 -47.8820 133° Southeast 507 583 38,700 -847 Descending FlightAware ADS-B
Mon 05:59:52 AM -21.5790 -47.8080 133° Southeast 507 583 37,800 -1,553 Descending FlightAware ADS-B
Mon 06:00:37 AM -21.6510 -47.7280 134° Southeast 508 585 36,500 -1,694 Descending FlightAware ADS-B
Mon 06:01:17 AM -21.7160 -47.6530 133° Southeast 508 585 35,400 -1,725 Descending FlightAware ADS-B
Mon 06:01:57 AM -21.7790 -47.5800 133° Southeast 510 587 34,200 -2,329 Descending FlightAware ADS-B
Mon 06:02:42 AM -21.8520 -47.4970 133° Southeast 512 589 32,100 -2,329 Descending FlightAware ADS-B
Mon 06:03:22 AM -21.9180 -47.4210 133° Southeast 499 574 30,900 -1,800 Descending FlightAware ADS-B
Mon 06:04:02 AM -21.9830 -47.3550 137° Southeast 476 548 29,700 -1,906 Descending FlightAware ADS-B
Mon 06:04:47 AM -22.0670 -47.3100 154° Southeast 450 518 28,200 -2,025 Descending FlightAware ADS-B
Mon 06:05:22 AM -22.1320 -47.2840 160° South 445 512 27,000 -1,906 Descending FlightAware ADS-B
Mon 06:06:12 AM -22.2240 -47.2460 159° South 438 504 25,500 -1,725 Descending FlightAware ADS-B
Mon 06:06:42 AM -22.2770 -47.2240 159° South 429 494 24,700 -1,650 Descending FlightAware ADS-B
Mon 06:07:32 AM -22.3690 -47.1860 159° South 414 476 23,300 -1,733 Descending FlightAware ADS-B
Mon 06:08:12 AM -22.4380 -47.1570 159° South 408 470 22,100 -1,835 Descending FlightAware ADS-B
Mon 06:08:57 AM -22.5140 -47.1240 158° South 403 464 20,700 -1,467 Descending FlightAware ADS-B
Mon 06:09:42 AM -22.5990 -47.0880 159° South 398 458 19,900 -1,740 Descending FlightAware ADS-B
Mon 06:10:37 AM -22.6940 -47.0490 159° South 387 445 17,800 -2,021 Descending FlightAware ADS-B
Mon 06:11:17 AM -22.7540 -47.0230 158° South 376 433 16,700 -1,412 Descending FlightAware ADS-B
Mon 06:12:02 AM -22.8300 -46.9920 159° South 348 400 15,800 -1,271 Descending FlightAware ADS-B
Mon 06:12:42 AM -22.8850 -46.9680 158° South 333 383 14,900 -1,835 Descending FlightAware ADS-B
Mon 06:13:27 AM -22.9480 -46.9420 159° South 324 373 13,200 -2,400 Descending FlightAware ADS-B
Mon 06:13:57 AM -22.9950 -46.9220 159° South 320 368 11,900 -2,047 Descending FlightAware ADS-B
Mon 06:14:52 AM -23.0630 -46.8940 159° South 292 336 10,300 -1,875 Descending FlightAware ADS-B
Mon 06:15:17 AM -23.0950 -46.8800 158° South 289 333 9,400 -1,560 Descending FlightAware ADS-B
Mon 06:15:42 AM -23.1260 -46.8670 159° South 285 328 9,000 -873 Descending FlightAware ADS-B
Mon 06:16:12 AM -23.1610 -46.8520 158° South 271 312 8,600 -600 Descending FlightAware ADS-B
Mon 06:16:42 AM -23.1950 -46.8380 159° South 253 291 8,400 -436 Descending FlightAware ADS-B
Mon 06:17:07 AM -23.2210 -46.8270 159° South 234 269 8,200 -436 Descending FlightAware ADS-B
Mon 06:17:37 AM -23.2490 -46.8150 159° South 216 249 8,000 -480 Descending FlightAware ADS-B
Mon 06:18:22 AM -23.2950 -46.7960 159° South 217 250 7,600 -514 Descending FlightAware ADS-B
Mon 06:18:47 AM -23.3190 -46.7860 159° South 216 249 7,400 -436 Descending FlightAware ADS-B
Mon 06:19:17 AM -23.3470 -46.7720 155° Southeast 211 243 7,200 -514 Descending FlightAware ADS-B
Mon 06:19:22 AM -23.3510 -46.7690 145° Southeast 216 249 7,100 -900 Descending FlightAware ADS-B
Mon 06:19:57 AM -23.3740 -46.7450 136° Southeast 224 258 6,600 -1,067 Descending FlightAware ADS-B
Mon 06:20:07 AM -23.3830 -46.7340 132° Southeast 223 257 6,300 -933 Descending FlightAware ADS-B
Mon 06:20:42 AM -23.4060 -46.7070 133° Southeast 206 237 5,900 -750 Descending FlightAware ADS-B
Mon 06:20:47 AM -23.4100 -46.7020 131° Southeast 204 235 5,800 -857 Descending FlightAware ADS-B
Mon 06:21:17 AM -23.4300 -46.6800 135° Southeast 203 234 5,400 -800 Descending FlightAware ADS-B
Mon 06:21:47 AM -23.4490 -46.6580 133° Southeast 203 234 5,000 -800 Descending FlightAware ADS-B
Mon 06:22:17 AM -23.4680 -46.6350 132° Southeast 200 230 4,600 -667 Descending FlightAware ADS-B
Mon 06:22:32 AM -23.4730 -46.6240 116° Southeast 204 235 4,500 -400 Descending FlightAware ADS-B
Mon 06:22:47 AM -23.4710 -46.6070 83° East 199 229 4,400 -300 Descending FlightAware ADS-B
Mon 06:22:52 AM -23.4690 -46.6010 70° East 197 227 4,400 -1,000 Level FlightAware ADS-B
Mon 06:23:17 AM -23.4630 -46.5780 74° East 183 211 3,900 -1,080 Descending FlightAware ADS-B
Mon 06:23:42 AM -23.4580 -46.5580 75° East 163 188 3,500 -873 Descending FlightAware ADS-B
Mon 06:24:12 AM -23.4510 -46.5340 72° East 156 180 3,100 -686 Descending FlightAware ADS-B
Mon 06:24:17 AM -23.4510 -46.5310 90° East 155 178 3,100 -686 Level FlightAware ADS-B
Mon 06:24:47 AM -23.4450 -46.5100 73° East 150 173 2,700 -764 Descending FlightAware ADS-B
Mon 06:25:12 AM -23.4400 -46.4910 74° East 145 167 2,400 -720 Descending FlightAware ADS-B

Login

Don't have an account? Register now (free) for customized features, flight alerts, and more!